Time;durP1;ratioP1;P1;durP2;ratioP2;P2;SDS_P1;SDS_P2;PMS_P1;PMS_P2;Temp;Humidity;BMP_temperature;BMP_pressure;BME280_temperature;BME280_humidity;BME280_pressure;Samples;Min_cycle;Max_cycle;Signal;HPM_P1;HPM_P2
2022/10/28 00:00:42;;;;;;;;;;;;;;;18.00;81.46;101437.25;1297825;22;660;-77
2022/10/28 00:01:33;;;;;;;;;;;;;;;17.99;81.64;101430.13;1297673;22;723;-76
2022/10/28 00:02:23;;;;;;;;;;;;;;;17.98;81.27;101440.06;1297725;22;633;-76
2022/10/28 00:03:14;;;;;;;;;;;;;;;17.97;81.38;101438.34;1297804;22;621;-77
2022/10/28 00:04:04;;;;;;;;;;;;;;;17.98;81.54;101441.91;1297556;22;639;-77
2022/10/28 00:04:55;;;;;;;;;;;;;;;17.96;81.73;101442.03;1297886;22;672;-77
2022/10/28 00:05:45;;;;;;;;;;;;;;;17.97;82.06;101440.19;1297668;22;656;-77
2022/10/28 00:06:35;;;;;;;;;;;;;;;17.96;81.80;101438.47;1297789;22;660;-77
2022/10/28 00:07:26;;;;;;;;;;;;;;;17.96;82.01;101438.47;1297734;22;734;-77
2022/10/28 00:08:16;;;;;;;;;;;;;;;17.95;81.96;101443.03;1297680;22;648;-77
2022/10/28 00:09:07;;;;;;;;;;;;;;;17.95;81.95;101439.47;1297835;22;688;-79
2022/10/28 00:09:57;;;;;;;;;;;;;;;17.95;81.58;101440.31;1297184;22;648;-78
2022/10/28 00:10:48;;;;;;;;;;;;;;;17.94;81.67;101433.22;1296655;22;672;-77
2022/10/28 00:11:38;;;;;;;;;;;;;;;17.95;81.37;101429.53;1296683;22;660;-77
2022/10/28 00:12:28;;;;;;;;;;;;;;;17.94;81.54;101424.28;1297808;22;668;-78
2022/10/28 00:13:19;;;;;;;;;;;;;;;17.95;81.44;101423.28;1297795;22;621;-78
2022/10/28 00:14:09;;;;;;;;;;;;;;;17.95;81.36;101426.00;1297592;22;685;-77
2022/10/28 00:15:00;;;;;;;;;;;;;;;17.93;81.41;101426.13;1297371;22;641;-77
2022/10/28 00:15:50;;;;;;;;;;;;;;;17.92;81.96;101423.56;1296530;22;602;-77
2022/10/28 00:16:41;;;;;;;;;;;;;;;17.91;81.58;101421.88;1296861;22;676;-76
2022/10/28 00:17:31;;;;;;;;;;;;;;;17.92;81.90;101423.56;1297765;22;1911;-76
2022/10/28 00:18:21;;;;;;;;;;;;;;;17.93;82.17;101425.25;1297765;22;671;-77
2022/10/28 00:19:12;;;;;;;;;;;;;;;17.92;82.13;101426.25;1297561;22;640;-77
2022/10/28 00:20:02;;;;;;;;;;;;;;;17.93;82.12;101427.97;1297789;22;664;-77
2022/10/28 00:20:56;;;;;;;;;;;;;;;17.92;81.68;101432.50;1297427;22;684;-77
2022/10/28 00:21:46;;;;;;;;;;;;;;;17.93;81.18;101422.56;1296466;22;645;-77
2022/10/28 00:22:37;;;;;;;;;;;;;;;17.94;81.95;101429.66;1297058;22;660;-77
2022/10/28 00:23:27;;;;;;;;;;;;;;;17.93;81.95;101428.81;1297750;22;613;-78
2022/10/28 00:24:17;;;;;;;;;;;;;;;17.92;81.56;101429.78;1297735;22;594;-78
2022/10/28 00:25:08;;;;;;;;;;;;;;;17.93;81.50;101427.97;1297649;22;641;-78
2022/10/28 00:25:58;;;;;;;;;;;;;;;17.92;81.13;101427.09;1297690;22;609;-78
2022/10/28 00:26:49;;;;;;;;;;;;;;;17.93;81.64;101417.16;1297757;22;644;-78
2022/10/28 00:27:39;;;;;;;;;;;;;;;17.93;82.32;101422.56;1297639;22;607;-77
2022/10/28 00:28:30;;;;;;;;;;;;;;;17.93;82.22;101422.56;1297817;22;680;-77
2022/10/28 00:29:20;;;;;;;;;;;;;;;17.92;81.54;101419.00;1297561;22;653;-78
2022/10/28 00:30:10;;;;;;;;;;;;;;;17.91;81.73;101417.34;1297895;22;675;-78
2022/10/28 00:31:01;;;;;;;;;;;;;;;17.91;82.06;101416.47;1297623;22;617;-78
2022/10/28 00:31:51;;;;;;;;;;;;;;;17.91;81.90;101416.47;1297608;22;633;-77
2022/10/28 00:32:42;;;;;;;;;;;;;;;17.89;82.31;101411.22;1297777;22;644;-76
2022/10/28 00:33:32;;;;;;;;;;;;;;;17.90;82.33;101414.78;1297684;22;664;-78
2022/10/28 00:34:23;;;;;;;;;;;;;;;17.90;81.88;101412.06;1297724;22;680;-77
2022/10/28 00:35:13;;;;;;;;;;;;;;;17.90;81.44;101409.38;1297051;22;625;-78
2022/10/28 00:36:03;;;;;;;;;;;;;;;17.90;82.33;101409.38;1297649;22;683;-77
2022/10/28 00:36:54;;;;;;;;;;;;;;;17.89;81.57;101408.53;1297779;22;597;-77
2022/10/28 00:37:44;;;;;;;;;;;;;;;17.90;81.75;101409.38;1297571;22;636;-76
2022/10/28 00:38:35;;;;;;;;;;;;;;;17.89;81.65;101408.53;1297808;22;644;-77
2022/10/28 00:39:26;;;;;;;;;;;;;;;17.89;82.33;101407.66;1297563;22;616;-77
2022/10/28 00:40:16;;;;;;;;;;;;;;;17.87;82.08;101409.63;1296726;22;621;-77
2022/10/28 00:41:07;;;;;;;;;;;;;;;17.88;82.33;101411.34;1297783;22;628;-76
2022/10/28 00:41:57;;;;;;;;;;;;;;;17.88;81.99;101408.66;1297536;22;629;-77
2022/10/28 00:42:48;;;;;;;;;;;;;;;17.87;82.25;101413.19;1297802;22;738;-78
2022/10/28 00:43:38;;;;;;;;;;;;;;;17.87;82.22;101409.63;1297510;22;660;-77
2022/10/28 00:44:28;;;;;;;;;;;;;;;17.86;82.09;101413.31;1297726;22;676;-77
2022/10/28 00:45:19;;;;;;;;;;;;;;;17.87;82.24;101409.63;1297516;22;640;-76
2022/10/28 00:46:09;;;;;;;;;;;;;;;17.87;81.39;101412.34;1297600;22;612;-76
2022/10/28 00:47:00;;;;;;;;;;;;;;;17.87;81.64;101409.63;1297651;22;641;-76
2022/10/28 00:47:50;;;;;;;;;;;;;;;17.85;81.96;101415.16;1297600;22;609;-76
2022/10/28 00:48:41;;;;;;;;;;;;;;;17.85;81.65;101409.75;1296943;22;628;-76
2022/10/28 00:49:31;;;;;;;;;;;;;;;17.85;81.71;101407.06;1297076;22;609;-76
2022/10/28 00:50:22;;;;;;;;;;;;;;;17.86;81.86;101411.47;1297569;22;676;-78
2022/10/28 00:51:12;;;;;;;;;;;;;;;17.85;81.61;101411.59;1297196;22;637;-77
2022/10/28 00:52:02;;;;;;;;;;;;;;;17.85;82.54;101408.91;1296294;22;688;-77
2022/10/28 00:52:53;;;;;;;;;;;;;;;17.83;81.69;101403.66;1296956;22;628;-77
2022/10/28 00:53:43;;;;;;;;;;;;;;;17.83;82.45;101408.19;1297688;22;656;-77
2022/10/28 00:54:34;;;;;;;;;;;;;;;17.83;82.35;101409.03;1297682;22;660;-77
2022/10/28 00:55:24;;;;;;;;;;;;;;;17.84;82.01;101404.50;1297653;22;636;-77
2022/10/28 00:56:15;;;;;;;;;;;;;;;17.83;82.24;101410.88;1298579;22;730;-77
2022/10/28 00:57:05;;;;;;;;;;;;;;;17.83;82.32;101405.50;1297609;22;664;-77
2022/10/28 00:57:55;;;;;;;;;;;;;;;17.83;81.76;101408.19;1297553;22;825;-77
2022/10/28 00:58:46;;;;;;;;;;;;;;;17.83;81.76;101402.78;1297472;22;660;-77
2022/10/28 00:59:36;;;;;;;;;;;;;;;17.83;81.66;101403.66;1297681;22;676;-77
2022/10/28 01:00:27;;;;;;;;;;;;;;;17.81;81.40;101402.91;1297643;22;660;-77
2022/10/28 01:01:17;;;;;;;;;;;;;;;17.81;82.40;101402.06;1297533;22;656;-77
2022/10/28 01:02:08;;;;;;;;;;;;;;;17.81;82.31;101402.06;1297616;22;672;-77
2022/10/28 01:02:58;;;;;;;;;;;;;;;17.81;81.69;101402.06;1297417;22;629;-77
2022/10/28 01:03:48;;;;;;;;;;;;;;;17.81;81.85;101404.75;1297191;22;641;-77
2022/10/28 01:04:39;;;;;;;;;;;;;;;17.80;82.04;101403.91;1297853;22;640;-77
2022/10/28 01:05:29;;;;;;;;;;;;;;;17.81;81.70;101400.22;1297745;22;649;-77
2022/10/28 01:06:20;;;;;;;;;;;;;;;17.81;82.37;101404.75;1297719;22;668;-76
2022/10/28 01:07:10;;;;;;;;;;;;;;;17.80;82.16;101403.91;1297602;22;628;-77
2022/10/28 01:08:01;;;;;;;;;;;;;;;17.79;81.43;101402.19;1297601;22;790;-76
2022/10/28 01:08:51;;;;;;;;;;;;;;;17.80;81.64;101398.50;1297723;22;632;-76
2022/10/28 01:09:42;;;;;;;;;;;;;;;17.81;81.91;101402.06;1297628;22;680;-75
2022/10/28 01:10:32;;;;;;;;;;;;;;;17.80;82.29;101403.06;1297661;22;604;-76
2022/10/28 01:11:22;;;;;;;;;;;;;;;17.79;81.79;101404.03;1297577;22;664;-76
2022/10/28 01:12:13;;;;;;;;;;;;;;;17.78;82.08;101396.94;1297742;22;679;-76
2022/10/28 01:13:03;;;;;;;;;;;;;;;17.77;81.79;101398.78;1297493;22;644;-76
2022/10/28 01:13:54;;;;;;;;;;;;;;;17.76;81.46;101396.22;1297671;22;636;-77
2022/10/28 01:14:44;;;;;;;;;;;;;;;17.76;81.86;101391.66;1297609;22;632;-77
2022/10/28 01:15:34;;;;;;;;;;;;;;;17.76;82.09;101391.66;1298349;22;652;-75
2022/10/28 01:16:25;;;;;;;;;;;;;;;17.77;81.95;101397.91;1297822;22;644;-75
2022/10/28 01:17:15;;;;;;;;;;;;;;;17.76;81.60;101396.22;1298324;22;1888;-76
2022/10/28 01:18:06;;;;;;;;;;;;;;;17.75;82.18;101395.34;1298320;22;632;-77
2022/10/28 01:18:56;;;;;;;;;;;;;;;17.75;82.04;101395.34;1298269;22;901;-74
2022/10/28 01:19:47;;;;;;;;;;;;;;;17.76;81.81;101399.75;1297679;22;707;-76
2022/10/28 01:20:37;;;;;;;;;;;;;;;17.76;82.22;101397.06;1297678;22;656;-78
2022/10/28 01:21:27;;;;;;;;;;;;;;;17.75;82.67;101399.88;1297691;22;617;-76
2022/10/28 01:22:18;;;;;;;;;;;;;;;17.75;81.76;101394.50;1297736;22;585;-77
2022/10/28 01:23:08;;;;;;;;;;;;;;;17.76;81.97;101396.22;1297506;22;608;-78
2022/10/28 01:23:59;;;;;;;;;;;;;;;17.74;81.59;101388.25;1297679;22;671;-77
2022/10/28 01:24:49;;;;;;;;;;;;;;;17.73;82.47;101391.09;1297686;22;613;-77
2022/10/28 01:25:39;;;;;;;;;;;;;;;17.73;82.01;101396.50;1297547;22;632;-77
2022/10/28 01:26:30;;;;;;;;;;;;;;;17.73;82.08;101396.50;1297835;22;589;-77
2022/10/28 01:27:20;;;;;;;;;;;;;;;17.74;82.21;101388.25;1297413;22;1093;-78
2022/10/28 01:28:11;;;;;;;;;;;;;;;17.75;82.08;101397.19;1297792;22;664;-78
2022/10/28 01:29:02;;;;;;;;;;;;;;;17.74;81.49;101387.41;1297500;22;641;-78
2022/10/28 01:29:52;;;;;;;;;;;;;;;17.75;81.47;101391.81;1297514;22;668;-78
2022/10/28 01:30:42;;;;;;;;;;;;;;;17.74;81.94;101392.78;1297664;22;652;-78
2022/10/28 01:31:33;;;;;;;;;;;;;;;17.74;82.07;101390.94;1297567;22;598;-77
2022/10/28 01:32:23;;;;;;;;;;;;;;;17.74;82.23;101392.78;1297551;22;600;-77
2022/10/28 01:33:14;;;;;;;;;;;;;;;17.72;81.86;101390.25;1297042;22;640;-77
2022/10/28 01:34:04;;;;;;;;;;;;;;;17.71;81.56;101388.53;1297478;22;663;-76
2022/10/28 01:34:54;;;;;;;;;;;;;;;17.72;81.78;101392.09;1297612;22;767;-77
2022/10/28 01:35:45;;;;;;;;;;;;;;;17.73;81.86;101393.81;1297721;22;695;-77
2022/10/28 01:36:35;;;;;;;;;;;;;;;17.74;82.44;101390.09;1297339;22;881;-76
2022/10/28 01:37:26;;;;;;;;;;;;;;;17.73;82.17;101397.34;1297727;22;1944;-76
2022/10/28 01:38:16;;;;;;;;;;;;;;;17.73;82.37;101391.09;1297416;22;605;-76
2022/10/28 01:39:07;;;;;;;;;;;;;;;17.72;81.50;101389.41;1297605;22;621;-77
2022/10/28 01:39:57;;;;;;;;;;;;;;;17.74;82.00;101392.78;1297452;22;652;-77
2022/10/28 01:40:48;;;;;;;;;;;;;;;17.74;81.86;101387.41;1297468;22;653;-77
2022/10/28 01:41:38;;;;;;;;;;;;;;;17.72;81.89;101390.25;1297024;22;660;-77
2022/10/28 01:42:28;;;;;;;;;;;;;;;17.72;82.37;101389.41;1296300;22;664;-76
2022/10/28 01:43:19;;;;;;;;;;;;;;;17.70;82.53;101381.44;1296844;22;636;-77
2022/10/28 01:44:09;;;;;;;;;;;;;;;17.71;82.30;101382.28;1297419;22;625;-78
2022/10/28 01:45:00;;;;;;;;;;;;;;;17.71;82.39;101387.69;1297467;22;699;-77
2022/10/28 01:45:50;;;;;;;;;;;;;;;17.68;81.93;101381.56;1297483;22;628;-77
2022/10/28 01:46:41;;;;;;;;;;;;;;;17.68;82.02;101378.88;1297382;22;645;-77
2022/10/28 01:47:31;;;;;;;;;;;;;;;17.71;82.60;101385.00;1296865;22;1142;-77
2022/10/28 01:48:21;;;;;;;;;;;;;;;17.69;82.38;101379.72;1297566;22;664;-76
2022/10/28 01:49:12;;;;;;;;;;;;;;;17.68;81.76;101378.00;1297845;22;637;-77
2022/10/28 01:50:02;;;;;;;;;;;;;;;17.68;81.54;101376.19;1297566;22;661;-77
2022/10/28 01:50:53;;;;;;;;;;;;;;;17.69;82.58;101377.88;1297474;22;664;-77
2022/10/28 01:51:43;;;;;;;;;;;;;;;17.68;82.11;101378.88;1297411;22;668;-77
2022/10/28 01:52:34;;;;;;;;;;;;;;;17.69;81.77;101371.66;1298442;22;640;-76
2022/10/28 01:53:24;;;;;;;;;;;;;;;17.69;81.75;101371.66;1297768;22;692;-76
2022/10/28 01:54:14;;;;;;;;;;;;;;;17.68;81.55;101370.78;1297624;22;645;-76
2022/10/28 01:55:05;;;;;;;;;;;;;;;17.68;82.14;101378.00;1297666;22;687;-76
2022/10/28 01:55:55;;;;;;;;;;;;;;;17.68;81.75;101372.63;1297503;22;661;-77
2022/10/28 01:56:46;;;;;;;;;;;;;;;17.68;82.12;101373.47;1297488;22;676;-77
2022/10/28 01:57:36;;;;;;;;;;;;;;;17.68;82.40;101370.78;1297452;22;1900;-77
2022/10/28 01:58:26;;;;;;;;;;;;;;;17.68;81.82;101370.78;1297559;22;645;-77
2022/10/28 01:59:17;;;;;;;;;;;;;;;17.68;82.54;101373.47;1297580;22;673;-77
2022/10/28 02:00:07;;;;;;;;;;;;;;;17.68;82.31;101368.09;1297403;22;645;-78
2022/10/28 02:00:58;;;;;;;;;;;;;;;17.66;82.70;101364.66;1297542;22;636;-78
2022/10/28 02:01:48;;;;;;;;;;;;;;;17.66;81.93;101361.97;1296813;22;739;-77
2022/10/28 02:02:39;;;;;;;;;;;;;;;17.66;82.48;101359.28;1297623;22;640;-78
2022/10/28 02:03:29;;;;;;;;;;;;;;;17.65;82.09;101357.56;1297707;22;825;-77
2022/10/28 02:04:19;;;;;;;;;;;;;;;17.66;81.73;101356.59;1297414;22;636;-77
2022/10/28 02:05:10;;;;;;;;;;;;;;;17.67;81.68;101354.75;1297596;22;609;-78
2022/10/28 02:06:00;;;;;;;;;;;;;;;17.67;81.75;101360.13;1297305;22;625;-77
2022/10/28 02:06:51;;;;;;;;;;;;;;;17.67;82.19;101352.06;1297587;22;695;-76
2022/10/28 02:07:41;;;;;;;;;;;;;;;17.68;81.70;101356.44;1297395;22;747;-77
2022/10/28 02:08:32;;;;;;;;;;;;;;;17.67;81.75;101355.59;1297558;22;629;-77
2022/10/28 02:09:22;;;;;;;;;;;;;;;17.67;82.33;101352.91;1297533;22;680;-76
2022/10/28 02:10:12;;;;;;;;;;;;;;;17.66;82.13;101348.50;1297484;22;641;-78
2022/10/28 02:11:03;;;;;;;;;;;;;;;17.65;81.95;101354.88;1297536;22;676;-77
2022/10/28 02:11:53;;;;;;;;;;;;;;;17.67;81.99;101354.75;1297311;22;727;-78
2022/10/28 02:12:44;;;;;;;;;;;;;;;17.66;82.17;101358.44;1297574;22;684;-77
2022/10/28 02:13:34;;;;;;;;;;;;;;;17.67;82.64;101355.59;1297385;22;691;-77
2022/10/28 02:14:24;;;;;;;;;;;;;;;17.66;81.92;101353.88;1297611;22;632;-77
2022/10/28 02:15:15;;;;;;;;;;;;;;;17.69;81.91;101352.78;1297562;22;672;-78
2022/10/28 02:16:05;;;;;;;;;;;;;;;17.67;81.70;101350.22;1298406;22;597;-77
2022/10/28 02:16:56;;;;;;;;;;;;;;;17.67;82.28;101350.22;1297552;22;613;-79
2022/10/28 02:17:46;;;;;;;;;;;;;;;17.67;81.71;101349.34;1297463;22;683;-78
2022/10/28 02:18:37;;;;;;;;;;;;;;;17.67;81.79;101339.44;1297539;22;605;-78
2022/10/28 02:19:27;;;;;;;;;;;;;;;17.66;82.17;101348.50;1297616;22;680;-78
2022/10/28 02:20:17;;;;;;;;;;;;;;;17.66;82.20;101336.84;1297503;22;668;-78
2022/10/28 02:21:08;;;;;;;;;;;;;;;17.65;81.95;101346.78;1297504;22;665;-78
2022/10/28 02:21:58;;;;;;;;;;;;;;;17.65;81.75;101348.63;1297471;22;669;-77
2022/10/28 02:22:49;;;;;;;;;;;;;;;17.63;81.57;101348.72;1297708;22;688;-77
2022/10/28 02:23:39;;;;;;;;;;;;;;;17.65;82.23;101348.63;1297543;22;616;-77
2022/10/28 02:24:30;;;;;;;;;;;;;;;17.64;82.05;101347.78;1297472;22;669;-77
2022/10/28 02:25:20;;;;;;;;;;;;;;;17.62;82.41;101341.63;1297426;22;754;-75
2022/10/28 02:26:10;;;;;;;;;;;;;;;17.65;82.09;101351.31;1297309;22;672;-76
2022/10/28 02:27:01;;;;;;;;;;;;;;;17.64;81.78;101341.53;1297669;22;665;-75
2022/10/28 02:27:51;;;;;;;;;;;;;;;17.63;82.34;101346.03;1297373;22;668;-76
2022/10/28 02:28:42;;;;;;;;;;;;;;;17.62;82.38;101340.78;1297649;22;656;-77
2022/10/28 02:29:32;;;;;;;;;;;;;;;17.62;82.32;101347.00;1297466;22;644;-75
2022/10/28 02:30:23;;;;;;;;;;;;;;;17.64;82.23;101347.78;1297600;22;552;-76
2022/10/28 02:31:13;;;;;;;;;;;;;;;17.63;81.91;101345.19;1296641;22;665;-75
2022/10/28 02:32:04;;;;;;;;;;;;;;;17.63;82.54;101340.63;1297536;22;721;-76
2022/10/28 02:32:54;;;;;;;;;;;;;;;17.66;82.31;101334.16;1297574;22;700;-76
2022/10/28 02:33:44;;;;;;;;;;;;;;;17.63;82.42;101331.69;1297393;22;617;-76
2022/10/28 02:34:35;;;;;;;;;;;;;;;17.61;82.17;101334.53;1297449;22;700;-76
2022/10/28 02:35:25;;;;;;;;;;;;;;;17.63;82.33;101323.63;1297435;22;641;-76
2022/10/28 02:36:16;;;;;;;;;;;;;;;17.63;81.89;101327.16;1297473;22;629;-76
2022/10/28 02:37:06;;;;;;;;;;;;;;;17.63;81.99;101326.31;1297632;22;652;-76
2022/10/28 02:37:56;;;;;;;;;;;;;;;17.62;82.60;101333.53;1297337;22;649;-76
2022/10/28 02:38:47;;;;;;;;;;;;;;;17.63;81.70;101326.31;1297455;22;621;-76
2022/10/28 02:39:37;;;;;;;;;;;;;;;17.63;81.98;101321.78;1297497;22;648;-76
2022/10/28 02:40:28;;;;;;;;;;;;;;;17.62;82.34;101320.06;1297455;22;656;-77
2022/10/28 02:41:18;;;;;;;;;;;;;;;17.62;82.69;101322.75;1297453;22;630;-77
2022/10/28 02:42:09;;;;;;;;;;;;;;;17.60;82.32;101326.56;1297029;22;608;-77
2022/10/28 02:42:59;;;;;;;;;;;;;;;17.62;82.49;101321.91;1296489;22;621;-77
2022/10/28 02:43:49;;;;;;;;;;;;;;;17.59;82.36;101325.72;1296489;22;672;-77
2022/10/28 02:44:40;;;;;;;;;;;;;;;17.60;81.70;101324.72;1297620;22;695;-77
2022/10/28 02:45:30;;;;;;;;;;;;;;;17.63;81.82;101326.31;1296778;22;758;-77
2022/10/28 02:46:21;;;;;;;;;;;;;;;17.62;82.32;101330.84;1297415;22;657;-77
2022/10/28 02:47:11;;;;;;;;;;;;;;;17.61;82.63;101339.91;1297465;22;1063;-77
2022/10/28 02:48:01;;;;;;;;;;;;;;;17.62;81.61;101332.69;1297539;22;672;-77
2022/10/28 02:48:52;;;;;;;;;;;;;;;17.61;81.70;101339.91;1297553;22;629;-77
2022/10/28 02:49:42;;;;;;;;;;;;;;;17.60;82.55;101338.22;1297518;22;617;-77
2022/10/28 02:50:33;;;;;;;;;;;;;;;17.61;81.91;101339.06;1297501;22;751;-77
2022/10/28 02:51:23;;;;;;;;;;;;;;;17.60;82.31;101343.59;1296959;22;617;-77
2022/10/28 02:52:14;;;;;;;;;;;;;;;17.60;81.93;101335.50;1296297;22;648;-76
2022/10/28 02:53:04;;;;;;;;;;;;;;;17.61;81.79;101321.03;1296802;22;619;-77
2022/10/28 02:53:54;;;;;;;;;;;;;;;17.59;81.60;101327.56;1297416;22;617;-77
2022/10/28 02:54:45;;;;;;;;;;;;;;;17.61;82.35;101337.22;1297564;22;624;-77
2022/10/28 02:55:35;;;;;;;;;;;;;;;17.60;82.25;101326.56;1297353;22;664;-77
2022/10/28 02:56:26;;;;;;;;;;;;;;;17.61;82.23;101339.06;1297476;22;668;-77
2022/10/28 02:57:16;;;;;;;;;;;;;;;17.60;82.43;101331.97;1297691;22;664;-77
2022/10/28 02:58:07;;;;;;;;;;;;;;;17.60;81.80;101338.22;1297474;22;625;-77
2022/10/28 02:58:57;;;;;;;;;;;;;;;17.61;82.37;101336.38;1297679;22;723;-76
2022/10/28 02:59:47;;;;;;;;;;;;;;;17.61;81.48;101328.28;1296800;22;609;-77
2022/10/28 03:00:38;;;;;;;;;;;;;;;17.58;81.68;101336.63;1297713;22;620;-77
2022/10/28 03:01:28;;;;;;;;;;;;;;;17.58;82.60;101334.78;1297281;22;643;-76
2022/10/28 03:02:19;;;;;;;;;;;;;;;17.59;81.81;101328.41;1297563;22;629;-76
2022/10/28 03:03:09;;;;;;;;;;;;;;;17.59;81.88;101333.81;1297371;22;655;-76
2022/10/28 03:04:00;;;;;;;;;;;;;;;17.59;81.60;101341.03;1297615;22;656;-76
2022/10/28 03:04:50;;;;;;;;;;;;;;;17.58;82.40;101337.47;1297559;22;612;-76
2022/10/28 03:05:40;;;;;;;;;;;;;;;17.58;82.45;101345.56;1297448;22;633;-76
2022/10/28 03:06:31;;;;;;;;;;;;;;;17.60;82.46;101337.34;1298417;22;643;-77
2022/10/28 03:07:21;;;;;;;;;;;;;;;17.59;82.31;101335.63;1297517;22;656;-77
2022/10/28 03:08:12;;;;;;;;;;;;;;;17.58;81.70;101334.78;1297748;22;684;-76
2022/10/28 03:09:02;;;;;;;;;;;;;;;17.58;81.50;101326.69;1298378;22;684;-76
2022/10/28 03:09:52;;;;;;;;;;;;;;;17.60;81.62;101331.97;1298280;22;724;-77
2022/10/28 03:10:43;;;;;;;;;;;;;;;17.59;82.42;101324.84;1298308;22;699;-77
2022/10/28 03:11:33;;;;;;;;;;;;;;;17.59;82.48;101327.56;1297449;22;648;-76
2022/10/28 03:12:24;;;;;;;;;;;;;;;17.55;82.38;101329.69;1297477;22;656;-76
2022/10/28 03:13:14;;;;;;;;;;;;;;;17.55;82.10;101321.59;1297416;22;597;-76
2022/10/28 03:14:05;;;;;;;;;;;;;;;17.55;81.62;101321.59;1297473;22;617;-76
2022/10/28 03:14:55;;;;;;;;;;;;;;;17.56;82.26;101333.19;1297535;22;577;-75
2022/10/28 03:15:45;;;;;;;;;;;;;;;17.56;81.47;101323.28;1297328;22;604;-76
2022/10/28 03:16:36;;;;;;;;;;;;;;;17.57;82.48;101327.69;1297536;22;660;-77
2022/10/28 03:17:26;;;;;;;;;;;;;;;17.56;81.76;101327.81;1296912;22;1940;-76
2022/10/28 03:18:17;;;;;;;;;;;;;;;17.56;81.91;101325.97;1296310;22;636;-77
2022/10/28 03:19:07;;;;;;;;;;;;;;;17.56;81.75;101325.97;1296802;22;636;-76
2022/10/28 03:19:58;;;;;;;;;;;;;;;17.57;81.73;101330.38;1297035;22;672;-77
2022/10/28 03:20:48;;;;;;;;;;;;;;;17.55;81.79;101328.84;1296441;22;624;-77
2022/10/28 03:21:38;;;;;;;;;;;;;;;17.56;82.46;101334.06;1296612;22;617;-76
2022/10/28 03:22:29;;;;;;;;;;;;;;;17.57;82.40;101332.22;1297966;22;695;-76
2022/10/28 03:23:19;;;;;;;;;;;;;;;17.58;82.33;101324.00;1297710;22;601;-77
2022/10/28 03:24:10;;;;;;;;;;;;;;;17.58;81.61;101334.78;1298801;22;671;-77
2022/10/28 03:25:00;;;;;;;;;;;;;;;17.58;81.66;101326.69;1297837;22;617;-76
2022/10/28 03:25:51;;;;;;;;;;;;;;;17.57;82.49;101330.38;1297811;22;633;-76
2022/10/28 03:26:41;;;;;;;;;;;;;;;17.56;82.36;101328.66;1297977;22;593;-77
2022/10/28 03:27:32;;;;;;;;;;;;;;;17.56;82.51;101327.81;1296711;22;1002;-77
2022/10/28 03:28:22;;;;;;;;;;;;;;;17.55;82.42;101332.38;1296553;22;672;-77
2022/10/28 03:29:13;;;;;;;;;;;;;;;17.55;82.36;101326.13;1289682;23;593;-77
2022/10/28 03:30:03;;;;;;;;;;;;;;;17.54;81.94;101319.88;1293493;22;660;-77
2022/10/28 03:30:54;;;;;;;;;;;;;;;17.54;82.05;101327.97;1299438;22;668;-77
2022/10/28 03:31:44;;;;;;;;;;;;;;;17.54;82.41;101317.19;1297976;22;637;-77
2022/10/28 03:32:34;;;;;;;;;;;;;;;17.56;82.49;101331.38;1297886;22;640;-78
2022/10/28 03:33:25;;;;;;;;;;;;;;;17.55;82.48;101316.22;1297889;22;700;-77
2022/10/28 03:34:15;;;;;;;;;;;;;;;17.56;82.06;101314.34;1297501;22;625;-76
2022/10/28 03:35:06;;;;;;;;;;;;;;;17.55;82.30;101318.91;1297784;22;636;-77
2022/10/28 03:35:56;;;;;;;;;;;;;;;17.55;81.81;101310.81;1297931;22;684;-77
2022/10/28 03:36:46;;;;;;;;;;;;;;;17.56;81.86;101306.25;1297617;22;609;-77
2022/10/28 03:37:37;;;;;;;;;;;;;;;17.58;82.45;101307.84;1297777;22;1931;-77
2022/10/28 03:38:27;;;;;;;;;;;;;;;17.57;82.41;101300.72;1297635;22;621;-76
2022/10/28 03:39:18;;;;;;;;;;;;;;;17.57;81.97;101297.19;1297948;22;605;-77
2022/10/28 03:40:08;;;;;;;;;;;;;;;17.56;81.55;101299.03;1297858;22;660;-76
2022/10/28 03:40:59;;;;;;;;;;;;;;;17.54;82.16;101301.03;1297723;22;633;-78
2022/10/28 03:41:49;;;;;;;;;;;;;;;17.56;82.53;101299.03;1297884;22;664;-77
2022/10/28 03:42:40;;;;;;;;;;;;;;;17.57;82.43;101299.88;1297700;22;621;-77
2022/10/28 03:43:30;;;;;;;;;;;;;;;17.56;82.10;101306.25;1297038;22;613;-76
2022/10/28 03:44:21;;;;;;;;;;;;;;;17.54;82.04;101306.41;1297921;22;660;-77
2022/10/28 03:45:11;;;;;;;;;;;;;;;17.54;82.43;101301.03;1297578;22;652;-77
2022/10/28 03:46:02;;;;;;;;;;;;;;;17.58;82.21;101306.97;1297871;22;597;-77
2022/10/28 03:46:52;;;;;;;;;;;;;;;17.56;82.11;101300.88;1297757;22;663;-77
2022/10/28 03:47:43;;;;;;;;;;;;;;;17.55;82.47;101302.75;1297627;22;609;-77
2022/10/28 03:48:33;;;;;;;;;;;;;;;17.55;81.35;101296.50;1297532;22;620;-77
2022/10/28 03:49:23;;;;;;;;;;;;;;;17.56;82.33;101298.16;1296492;22;617;-78
2022/10/28 03:50:14;;;;;;;;;;;;;;;17.55;81.99;101296.50;1290375;23;648;-77
2022/10/28 03:51:04;;;;;;;;;;;;;;;17.53;82.16;101298.47;1292898;22;710;-77
2022/10/28 03:51:55;;;;;;;;;;;;;;;17.52;82.44;101294.06;1299509;22;600;-78
2022/10/28 03:52:45;;;;;;;;;;;;;;;17.53;82.30;101288.53;1297879;22;600;-77
2022/10/28 03:53:35;;;;;;;;;;;;;;;17.52;81.56;101296.75;1297698;22;601;-77
2022/10/28 03:54:26;;;;;;;;;;;;;;;17.52;82.14;101292.22;1297851;22;706;-78
2022/10/28 03:55:16;;;;;;;;;;;;;;;17.55;81.85;101289.25;1297661;22;718;-77
2022/10/28 03:56:07;;;;;;;;;;;;;;;17.53;81.65;101291.22;1297712;22;685;-78
2022/10/28 03:56:57;;;;;;;;;;;;;;;17.54;82.04;101282.16;1298297;22;530;-77
2022/10/28 03:57:48;;;;;;;;;;;;;;;17.54;81.86;101289.38;1295822;22;1960;-77
2022/10/28 03:58:38;;;;;;;;;;;;;;;17.55;81.61;101293.81;1297220;22;688;-77
2022/10/28 03:59:29;;;;;;;;;;;;;;;17.55;82.05;101291.09;1297596;22;664;-77
2022/10/28 04:00:19;;;;;;;;;;;;;;;17.54;81.75;101290.25;1297738;22;657;-77
2022/10/28 04:01:09;;;;;;;;;;;;;;;17.54;81.91;101292.94;1297569;22;597;-77
2022/10/28 04:02:00;;;;;;;;;;;;;;;17.54;81.92;101292.94;1297775;22;648;-77
2022/10/28 04:02:50;;;;;;;;;;;;;;;17.53;81.95;101288.53;1297947;22;605;-77
2022/10/28 04:03:41;;;;;;;;;;;;;;;17.52;81.48;101286.81;1297703;22;798;-77
2022/10/28 04:04:31;;;;;;;;;;;;;;;17.52;82.14;101296.75;1297867;22;672;-77
2022/10/28 04:05:22;;;;;;;;;;;;;;;17.53;81.89;101298.47;1297818;22;609;-77
2022/10/28 04:06:13;;;;;;;;;;;;;;;17.53;81.83;101302.00;1297883;22;680;-77
2022/10/28 04:07:03;;;;;;;;;;;;;;;17.54;81.72;101295.63;1297515;22;618;-77
2022/10/28 04:07:54;;;;;;;;;;;;;;;17.53;82.01;101295.78;1297577;22;661;-77
2022/10/28 04:08:44;;;;;;;;;;;;;;;17.52;82.38;101292.22;1297835;22;703;-77
2022/10/28 04:09:34;;;;;;;;;;;;;;;17.50;82.27;101304.97;1297687;22;636;-77
2022/10/28 04:10:25;;;;;;;;;;;;;;;17.53;81.94;101299.31;1297750;22;641;-77
2022/10/28 04:11:15;;;;;;;;;;;;;;;17.53;81.70;101302.00;1297644;22;634;-77
2022/10/28 04:12:06;;;;;;;;;;;;;;;17.53;81.48;101299.31;1297556;22;629;-77
2022/10/28 04:12:56;;;;;;;;;;;;;;;17.53;81.88;101295.78;1297904;22;679;-77
2022/10/28 04:13:47;;;;;;;;;;;;;;;17.53;81.81;101295.78;1297597;22;661;-77
2022/10/28 04:14:37;;;;;;;;;;;;;;;17.52;81.68;101297.59;1297829;22;629;-77
2022/10/28 04:15:27;;;;;;;;;;;;;;;17.52;82.29;101291.38;1297659;22;656;-77
2022/10/28 04:16:18;;;;;;;;;;;;;;;17.51;82.24;101301.28;1297666;22;684;-78
2022/10/28 04:17:08;;;;;;;;;;;;;;;17.50;82.02;101298.72;1297620;22;601;-77
2022/10/28 04:17:59;;;;;;;;;;;;;;;17.51;81.44;101306.69;1297602;22;621;-77
2022/10/28 04:18:49;;;;;;;;;;;;;;;17.50;81.61;101304.97;1297802;22;625;-77
2022/10/28 04:19:40;;;;;;;;;;;;;;;17.50;81.99;101298.72;1297720;22;652;-77
2022/10/28 04:20:30;;;;;;;;;;;;;;;17.50;82.33;101304.13;1297774;22;610;-77
2022/10/28 04:21:21;;;;;;;;;;;;;;;17.52;81.79;101308.38;1297541;22;617;-77
2022/10/28 04:22:11;;;;;;;;;;;;;;;17.51;82.55;101306.69;1297782;22;621;-76
2022/10/28 04:23:01;;;;;;;;;;;;;;;17.51;81.50;101305.81;1297591;22;970;-77
2022/10/28 04:23:52;;;;;;;;;;;;;;;17.51;82.10;101303.97;1297825;22;624;-77
2022/10/28 04:24:42;;;;;;;;;;;;;;;17.51;81.58;101303.97;1297828;22;621;-78
2022/10/28 04:25:33;;;;;;;;;;;;;;;17.52;82.10;101296.75;1297787;22;656;-78
2022/10/28 04:26:23;;;;;;;;;;;;;;;17.51;82.26;101300.44;1297747;22;609;-77